createdAt,value
2022-11-30T00:01:25.261Z,76.58
2022-11-30T00:03:57.263Z,77.43
2022-11-30T00:06:25.577Z,77.22
2022-11-30T00:08:57.378Z,76.66
2022-11-30T00:11:27.505Z,77.18
2022-11-30T00:13:55.084Z,76.95
2022-11-30T00:16:22.738Z,77.15
2022-11-30T00:18:50.260Z,77.79
2022-11-30T00:21:19.735Z,77.28
2022-11-30T00:23:48.516Z,76.30
2022-11-30T00:26:19.009Z,75.90
2022-11-30T00:28:48.540Z,76.37
2022-11-30T00:31:18.590Z,77.35
2022-11-30T00:33:46.271Z,76.57
2022-11-30T00:36:24.713Z,76.47
2022-11-30T00:38:52.456Z,76.94
2022-11-30T00:41:20.388Z,76.60
2022-11-30T00:43:51.108Z,76.08
2022-11-30T00:46:18.260Z,77.09
2022-11-30T00:48:47.706Z,76.53
2022-11-30T00:51:15.058Z,75.86
2022-11-30T00:53:42.462Z,77.24
2022-11-30T00:56:10.631Z,77.27
2022-11-30T00:58:37.887Z,78.09
2022-11-30T01:01:05.411Z,78.16
2022-11-30T01:03:34.730Z,78.42
2022-11-30T01:06:07.612Z,78.02
2022-11-30T01:08:40.245Z,77.83
2022-11-30T01:11:18.290Z,76.97
2022-11-30T01:13:45.369Z,79.04
2022-11-30T01:16:18.596Z,78.21
2022-11-30T01:18:45.903Z,79.81
2022-11-30T01:21:18.337Z,78.24
2022-11-30T01:23:46.068Z,78.64
2022-11-30T01:26:13.552Z,77.80
2022-11-30T01:28:46.823Z,77.91
2022-11-30T01:31:15.141Z,78.10
2022-11-30T01:33:45.210Z,77.85
2022-11-30T01:36:21.544Z,80.02
2022-11-30T01:38:53.203Z,78.51
2022-11-30T01:41:31.069Z,78.88
2022-11-30T01:44:20.149Z,78.60
2022-11-30T01:47:09.322Z,77.67
2022-11-30T01:50:05.138Z,77.54
2022-11-30T01:52:47.239Z,77.65
2022-11-30T01:55:36.083Z,78.90
2022-11-30T01:58:17.668Z,77.91
2022-11-30T02:00:48.776Z,78.87
2022-11-30T02:03:42.363Z,77.55
2022-11-30T02:06:10.022Z,78.05
2022-11-30T02:08:37.204Z,77.77
2022-11-30T02:11:11.284Z,77.47
2022-11-30T02:14:06.008Z,78.16
2022-11-30T02:16:59.087Z,77.77
2022-11-30T02:19:50.818Z,77.12
2022-11-30T02:22:29.785Z,77.54
2022-11-30T02:25:26.017Z,77.63
2022-11-30T02:28:32.838Z,78.31
2022-11-30T02:31:02.449Z,77.97
2022-11-30T02:33:34.058Z,77.60
2022-11-30T02:36:03.837Z,76.24
2022-11-30T02:38:31.001Z,77.02
2022-11-30T02:40:58.042Z,76.56
2022-11-30T02:43:28.532Z,78.72
2022-11-30T02:46:45.164Z,78.29
2022-11-30T02:49:35.931Z,79.03
2022-11-30T02:52:04.712Z,78.14
2022-11-30T02:54:35.081Z,78.27
2022-11-30T02:57:02.124Z,77.80
2022-11-30T02:59:29.872Z,78.56
2022-11-30T03:01:57.547Z,78.78
2022-11-30T03:04:24.717Z,79.11
2022-11-30T03:06:54.258Z,79.49
2022-11-30T03:09:21.345Z,80.63
2022-11-30T03:11:50.415Z,80.03
2022-11-30T03:14:17.389Z,81.16
2022-11-30T03:16:44.463Z,81.88
2022-11-30T03:19:11.476Z,80.31
2022-11-30T03:21:38.577Z,81.21
2022-11-30T03:24:05.949Z,80.27
2022-11-30T03:26:32.989Z,80.83
2022-11-30T03:29:00.084Z,81.41
2022-11-30T03:31:27.221Z,80.16
2022-11-30T03:33:54.315Z,80.50
2022-11-30T03:36:21.334Z,80.55
2022-11-30T03:38:48.509Z,80.77
2022-11-30T03:41:17.973Z,80.94
2022-11-30T03:43:46.891Z,80.09
2022-11-30T03:46:16.673Z,81.48
2022-11-30T03:48:44.203Z,80.90
2022-11-30T03:51:13.379Z,80.50
2022-11-30T03:53:41.476Z,80.75
2022-11-30T03:56:10.680Z,80.29
2022-11-30T03:58:38.455Z,82.41
2022-11-30T04:01:10.918Z,81.20
2022-11-30T04:03:41.198Z,81.94
2022-11-30T04:06:13.449Z,81.28
2022-11-30T04:08:41.332Z,81.37
2022-11-30T04:11:08.932Z,81.70
2022-11-30T04:13:40.115Z,80.94
2022-11-30T04:16:08.389Z,81.37
2022-11-30T04:18:39.125Z,81.15
2022-11-30T04:21:07.373Z,80.65
2022-11-30T04:23:40.332Z,81.00
2022-11-30T04:26:14.790Z,81.69
2022-11-30T04:28:42.452Z,81.00
2022-11-30T04:31:10.101Z,81.36
2022-11-30T04:33:39.868Z,82.04
2022-11-30T04:36:18.869Z,81.80
2022-11-30T04:38:46.422Z,82.16
2022-11-30T04:41:13.808Z,81.85
2022-11-30T04:43:40.879Z,81.83
2022-11-30T04:46:08.188Z,82.53
2022-11-30T04:48:35.654Z,81.81
2022-11-30T04:51:06.201Z,81.34
2022-11-30T04:53:37.897Z,81.55
2022-11-30T04:56:10.172Z,81.63
2022-11-30T04:58:39.051Z,80.87
2022-11-30T05:01:07.183Z,82.89
2022-11-30T05:03:34.286Z,82.85
2022-11-30T05:06:01.599Z,81.37
2022-11-30T05:08:28.739Z,81.19
2022-11-30T05:10:55.792Z,83.43
2022-11-30T05:13:25.291Z,81.66
2022-11-30T05:15:53.984Z,81.17
2022-11-30T05:18:21.304Z,82.03
2022-11-30T05:20:53.220Z,80.95
2022-11-30T05:23:21.232Z,82.16
2022-11-30T05:25:48.639Z,81.59
2022-11-30T05:28:15.990Z,81.32
2022-11-30T05:30:44.010Z,81.48
2022-11-30T05:33:13.593Z,82.54
2022-11-30T05:35:40.658Z,81.77
2022-11-30T05:38:07.817Z,81.74
2022-11-30T05:43:04.724Z,81.15
2022-11-30T05:45:32.094Z,82.04
2022-11-30T05:47:59.161Z,83.60
2022-11-30T05:50:26.281Z,83.19
2022-11-30T05:52:56.612Z,83.20
2022-11-30T05:55:28.976Z,83.51
2022-11-30T05:57:55.970Z,83.13
2022-11-30T06:00:25.394Z,82.78
2022-11-30T06:03:00.405Z,81.60
2022-11-30T06:05:28.467Z,81.80
2022-11-30T06:07:59.306Z,82.94
2022-11-30T06:10:27.389Z,82.46
2022-11-30T06:12:54.369Z,83.41
2022-11-30T06:15:21.429Z,83.83
2022-11-30T06:17:48.441Z,84.06
2022-11-30T06:20:16.195Z,83.21
2022-11-30T06:22:46.694Z,82.98
2022-11-30T06:25:15.052Z,83.74
2022-11-30T06:27:43.745Z,84.12
2022-11-30T06:30:11.891Z,82.26
2022-11-30T06:32:39.011Z,83.33
2022-11-30T06:35:06.554Z,82.93
2022-11-30T06:37:36.806Z,83.15
2022-11-30T06:40:06.999Z,84.18
2022-11-30T06:42:34.991Z,84.53
2022-11-30T06:45:02.193Z,83.80
2022-11-30T06:47:29.212Z,82.48
2022-11-30T06:49:58.922Z,82.86
2022-11-30T06:52:28.905Z,84.34
2022-11-30T06:54:55.853Z,82.37
2022-11-30T06:57:30.450Z,83.01
2022-11-30T06:59:57.904Z,82.50
2022-11-30T07:02:27.153Z,82.06
2022-11-30T07:04:54.188Z,82.27
2022-11-30T07:07:21.563Z,82.21
2022-11-30T07:09:52.277Z,82.82
2022-11-30T07:12:19.439Z,83.28
2022-11-30T07:14:46.733Z,82.75
2022-11-30T07:17:14.077Z,82.03
2022-11-30T07:19:41.148Z,82.64
2022-11-30T07:22:08.128Z,82.36
2022-11-30T07:24:53.421Z,81.41
2022-11-30T07:27:20.436Z,80.30
2022-11-30T07:29:49.042Z,81.29
2022-11-30T07:32:16.098Z,82.39
2022-11-30T07:34:44.356Z,81.40
2022-11-30T07:37:13.541Z,81.83
2022-11-30T07:39:40.664Z,80.52
2022-11-30T07:42:07.966Z,82.14
2022-11-30T07:44:35.326Z,82.46
2022-11-30T07:47:02.665Z,82.25
2022-11-30T07:49:29.651Z,83.29
2022-11-30T07:51:56.751Z,81.56
2022-11-30T07:54:23.734Z,83.04
2022-11-30T07:56:50.734Z,81.93
2022-11-30T07:59:17.965Z,82.02
2022-11-30T08:01:45.130Z,82.63
2022-11-30T08:04:14.987Z,82.55
2022-11-30T08:06:42.235Z,81.17
2022-11-30T08:09:17.866Z,80.72
2022-11-30T08:11:49.182Z,80.70
2022-11-30T08:14:17.670Z,80.16
2022-11-30T08:16:44.836Z,79.89
2022-11-30T08:19:11.896Z,79.80
2022-11-30T08:21:38.895Z,78.96
2022-11-30T08:24:06.268Z,79.46
2022-11-30T08:26:34.421Z,79.40
2022-11-30T08:29:02.289Z,78.49
2022-11-30T08:31:35.930Z,77.86
2022-11-30T08:34:10.843Z,79.31
2022-11-30T08:36:41.853Z,78.50
2022-11-30T08:39:12.459Z,78.58
2022-11-30T08:41:39.489Z,78.33
2022-11-30T08:44:06.876Z,78.99
2022-11-30T08:46:50.890Z,79.61
2022-11-30T08:49:24.488Z,79.43
2022-11-30T08:54:46.056Z,80.72
2022-11-30T08:57:18.842Z,78.84
2022-11-30T08:59:46.588Z,79.48
2022-11-30T09:02:19.616Z,79.58
2022-11-30T09:04:49.376Z,79.17
2022-11-30T09:07:21.374Z,78.40
2022-11-30T09:09:48.497Z,78.86
2022-11-30T09:12:15.543Z,78.07
2022-11-30T09:14:42.818Z,77.87
2022-11-30T09:17:09.994Z,78.71
2022-11-30T09:19:37.222Z,78.77
2022-11-30T09:22:04.315Z,77.64
2022-11-30T09:24:31.396Z,78.88
2022-11-30T09:26:58.513Z,78.04
2022-11-30T09:29:25.591Z,78.46
2022-11-30T09:31:55.714Z,78.38
2022-11-30T09:34:22.705Z,79.34
2022-11-30T09:36:49.714Z,78.53
2022-11-30T09:39:16.815Z,78.68
2022-11-30T09:42:24.378Z,78.79
2022-11-30T09:44:57.154Z,77.79
2022-11-30T09:48:11.548Z,78.30
2022-11-30T09:50:44.109Z,78.17
2022-11-30T09:53:29.715Z,77.78
2022-11-30T09:55:58.946Z,77.58
2022-11-30T09:58:44.954Z,77.87
2022-11-30T10:01:20.838Z,78.03
2022-11-30T10:03:52.881Z,77.76
2022-11-30T10:07:02.697Z,77.65
2022-11-30T10:13:26.812Z,77.99
2022-11-30T10:16:19.278Z,78.10
2022-11-30T10:19:10.942Z,78.08
2022-11-30T10:22:04.939Z,77.73
2022-11-30T10:25:08.712Z,76.63
2022-11-30T10:27:55.568Z,76.28
2022-11-30T10:30:26.227Z,75.99
2022-11-30T10:32:56.634Z,77.25
2022-11-30T10:35:43.294Z,77.76
2022-11-30T10:38:33.937Z,76.14
2022-11-30T10:41:29.005Z,75.94
2022-11-30T10:44:04.075Z,75.02
2022-11-30T10:46:38.358Z,76.10
2022-11-30T10:49:19.917Z,75.89
2022-11-30T10:51:53.613Z,78.00
2022-11-30T10:54:22.820Z,77.11
2022-11-30T10:56:50.012Z,78.20
2022-11-30T10:59:33.666Z,77.52
2022-11-30T11:02:01.401Z,77.46
2022-11-30T11:04:28.675Z,77.97
2022-11-30T11:07:07.248Z,77.42
2022-11-30T11:09:53.594Z,78.51
2022-11-30T11:12:30.751Z,76.99
2022-11-30T11:15:32.355Z,77.08
2022-11-30T11:18:26.254Z,78.93
2022-11-30T11:21:08.194Z,77.75
2022-11-30T11:23:42.523Z,77.16
2022-11-30T11:26:29.603Z,77.48
2022-11-30T11:28:59.658Z,76.23
2022-11-30T11:31:49.179Z,77.27
2022-11-30T11:34:34.506Z,76.20
2022-11-30T11:37:33.881Z,75.57
2022-11-30T11:40:02.368Z,76.21
2022-11-30T11:42:53.054Z,76.99
2022-11-30T11:45:37.144Z,77.92
2022-11-30T11:48:37.704Z,77.22
2022-11-30T11:51:09.380Z,77.22
2022-11-30T11:53:51.699Z,77.76
2022-11-30T11:56:37.788Z,77.13
2022-11-30T11:59:42.247Z,77.95
2022-11-30T12:02:36.457Z,76.51
2022-11-30T12:05:17.780Z,76.36
2022-11-30T12:08:10.355Z,75.75
2022-11-30T12:10:51.868Z,75.44
2022-11-30T12:13:27.276Z,75.99
2022-11-30T12:16:12.390Z,76.56
2022-11-30T12:19:15.164Z,75.41
2022-11-30T12:22:15.142Z,75.86
2022-11-30T12:25:18.623Z,77.67
2022-11-30T12:28:35.093Z,77.25
2022-11-30T12:31:15.826Z,77.16
2022-11-30T12:33:42.876Z,77.33
2022-11-30T12:36:48.491Z,77.02
2022-11-30T12:39:32.331Z,76.95
2022-11-30T12:42:15.338Z,75.85
2022-11-30T12:44:45.965Z,77.90
2022-11-30T12:48:01.820Z,76.88
2022-11-30T12:51:10.948Z,76.55
2022-11-30T12:54:05.641Z,76.56
2022-11-30T12:56:55.842Z,77.20
2022-11-30T12:59:33.739Z,77.39
2022-11-30T13:02:40.948Z,75.26
2022-11-30T13:05:54.790Z,76.72
2022-11-30T13:08:34.975Z,76.20
2022-11-30T13:11:11.724Z,76.04
2022-11-30T13:13:52.700Z,75.38
2022-11-30T13:16:22.788Z,75.48
2022-11-30T13:18:52.946Z,75.42
2022-11-30T13:21:42.161Z,74.96
2022-11-30T13:24:29.155Z,74.44
2022-11-30T13:27:16.229Z,75.16
2022-11-30T13:30:16.967Z,74.34
2022-11-30T13:32:59.455Z,76.10
2022-11-30T13:35:29.597Z,76.79
2022-11-30T13:38:35.879Z,75.35
2022-11-30T13:41:05.713Z,75.42
2022-11-30T13:43:48.109Z,75.64
2022-11-30T13:46:33.023Z,76.15
2022-11-30T13:49:29.081Z,75.83
2022-11-30T13:52:21.577Z,75.81
2022-11-30T13:54:50.776Z,76.25
2022-11-30T13:57:30.411Z,76.82
2022-11-30T14:00:22.914Z,77.58
2022-11-30T14:02:54.507Z,75.65
2022-11-30T14:05:38.722Z,75.13
2022-11-30T14:08:13.913Z,76.52
2022-11-30T14:10:51.680Z,76.29
2022-11-30T14:13:22.766Z,77.45
2022-11-30T14:16:00.486Z,75.25
2022-11-30T14:18:40.487Z,75.17
2022-11-30T14:21:18.573Z,75.12
2022-11-30T14:24:15.797Z,76.49
2022-11-30T14:26:50.485Z,75.90
2022-11-30T14:29:31.502Z,76.77
2022-11-30T14:32:18.461Z,77.84
2022-11-30T14:34:52.309Z,76.25
2022-11-30T14:37:27.154Z,78.22
2022-11-30T14:39:56.753Z,77.44
2022-11-30T14:42:26.323Z,76.59
2022-11-30T14:44:57.674Z,77.78
2022-11-30T14:47:35.751Z,77.36
2022-11-30T14:50:08.341Z,76.57
2022-11-30T14:52:52.108Z,76.32
2022-11-30T14:55:57.575Z,76.92
2022-11-30T14:58:42.310Z,76.76
2022-11-30T15:01:25.410Z,77.35
2022-11-30T15:04:02.820Z,76.66
2022-11-30T15:06:33.420Z,77.52
2022-11-30T15:09:02.366Z,77.13
2022-11-30T15:11:29.908Z,75.98
2022-11-30T15:14:26.075Z,76.32
2022-11-30T15:16:58.078Z,76.30
2022-11-30T15:19:29.140Z,78.65
2022-11-30T15:21:58.368Z,76.92
2022-11-30T15:24:27.014Z,76.75
2022-11-30T15:27:10.596Z,76.17
2022-11-30T15:30:03.154Z,76.25
2022-11-30T15:32:30.285Z,75.76
2022-11-30T15:35:01.090Z,75.96
2022-11-30T15:37:38.969Z,76.93
2022-11-30T15:40:10.916Z,77.68
2022-11-30T15:42:40.549Z,76.09
2022-11-30T15:45:21.747Z,75.64
2022-11-30T15:47:49.171Z,76.25
2022-11-30T15:50:30.933Z,76.16
2022-11-30T15:53:03.801Z,75.71
2022-11-30T15:56:07.677Z,75.36
2022-11-30T15:59:08.202Z,76.55
2022-11-30T16:02:16.001Z,76.84
2022-11-30T16:04:58.268Z,75.38
2022-11-30T16:07:33.429Z,76.29
2022-11-30T16:10:16.459Z,77.42
2022-11-30T16:12:45.024Z,76.89
2022-11-30T16:15:20.033Z,74.81
2022-11-30T16:17:47.336Z,74.31
2022-11-30T16:20:15.879Z,74.68
2022-11-30T16:22:46.184Z,73.88
2022-11-30T16:25:17.372Z,74.22
2022-11-30T16:27:47.783Z,74.52
2022-11-30T16:30:19.258Z,74.58
2022-11-30T16:32:46.990Z,74.63
2022-11-30T16:35:50.900Z,74.74
2022-11-30T16:38:20.348Z,75.01
2022-11-30T16:40:47.596Z,74.12
2022-11-30T16:43:15.232Z,74.69
2022-11-30T16:45:44.192Z,74.94
2022-11-30T16:48:11.332Z,76.20
2022-11-30T16:50:44.638Z,75.76
2022-11-30T16:53:15.281Z,77.49
2022-11-30T16:55:42.909Z,75.27
2022-11-30T16:58:10.177Z,74.92
2022-11-30T17:00:40.129Z,75.38
2022-11-30T17:03:26.524Z,74.56
2022-11-30T17:05:53.565Z,74.05
2022-11-30T17:08:20.867Z,75.07
2022-11-30T17:10:53.074Z,74.33
2022-11-30T17:13:20.941Z,74.23
2022-11-30T17:15:49.325Z,76.57
2022-11-30T17:18:16.352Z,75.04
2022-11-30T17:20:43.392Z,74.87
2022-11-30T17:23:12.874Z,74.82
2022-11-30T17:25:40.027Z,74.81
2022-11-30T17:28:07.075Z,75.61
2022-11-30T17:30:36.620Z,74.78
2022-11-30T17:33:03.720Z,74.87
2022-11-30T17:35:31.139Z,74.14
2022-11-30T17:38:00.385Z,75.18
2022-11-30T17:40:27.372Z,75.97
2022-11-30T17:42:54.382Z,75.54
2022-11-30T17:45:21.399Z,74.66
2022-11-30T17:47:48.433Z,74.37
2022-11-30T17:50:15.593Z,74.35
2022-11-30T17:52:42.685Z,74.97
2022-11-30T17:55:10.244Z,74.01
2022-11-30T17:57:38.626Z,74.38
2022-11-30T18:00:08.661Z,73.76
2022-11-30T18:02:37.925Z,74.07
2022-11-30T18:05:05.706Z,75.31
2022-11-30T18:07:32.861Z,74.72
2022-11-30T18:10:01.824Z,74.14
2022-11-30T18:12:31.462Z,74.92
2022-11-30T18:14:58.549Z,74.52
2022-11-30T18:17:25.648Z,74.86
2022-11-30T18:19:52.658Z,73.93
2022-11-30T18:22:19.775Z,74.24
2022-11-30T18:24:47.223Z,73.53
2022-11-30T18:27:14.518Z,74.04
2022-11-30T18:29:41.945Z,74.18
2022-11-30T18:32:10.480Z,74.41
2022-11-30T18:34:42.467Z,75.06
2022-11-30T18:37:09.463Z,75.02
2022-11-30T18:39:38.530Z,75.02
2022-11-30T18:42:05.524Z,74.33
2022-11-30T18:44:33.114Z,74.79
2022-11-30T18:47:00.149Z,74.89
2022-11-30T18:49:27.198Z,74.43
2022-11-30T18:51:54.221Z,73.38
2022-11-30T18:54:21.308Z,74.14
2022-11-30T18:56:48.260Z,75.08
2022-11-30T18:59:20.845Z,74.97
2022-11-30T19:01:47.949Z,74.82
2022-11-30T19:04:15.046Z,74.06
2022-11-30T19:06:43.282Z,73.62
2022-11-30T19:09:14.491Z,73.88
2022-11-30T19:11:45.663Z,72.88
2022-11-30T19:14:15.307Z,73.72
2022-11-30T19:16:43.871Z,75.47
2022-11-30T19:19:14.095Z,74.58
2022-11-30T19:21:47.955Z,73.44
2022-11-30T19:24:16.405Z,73.48
2022-11-30T19:26:43.394Z,73.24
2022-11-30T19:29:12.047Z,72.52
2022-11-30T19:31:39.441Z,73.52
2022-11-30T19:34:10.808Z,72.50
2022-11-30T19:36:39.582Z,72.38
2022-11-30T19:39:06.681Z,73.63
2022-11-30T19:41:35.763Z,73.38
2022-11-30T19:44:04.273Z,73.33
2022-11-30T19:46:33.194Z,74.24
2022-11-30T19:49:04.144Z,73.11
2022-11-30T19:51:32.087Z,73.22
2022-11-30T19:53:59.791Z,73.03
2022-11-30T19:56:31.593Z,72.78
2022-11-30T19:59:04.378Z,72.81
2022-11-30T20:01:35.052Z,73.39
2022-11-30T20:04:04.845Z,73.03
2022-11-30T20:06:38.439Z,72.89
2022-11-30T20:09:08.563Z,72.58
2022-11-30T20:11:35.613Z,73.00
2022-11-30T20:14:02.901Z,72.61
2022-11-30T20:16:30.221Z,72.53
2022-11-30T20:19:03.417Z,72.57
2022-11-30T20:21:34.421Z,72.53
2022-11-30T20:24:06.742Z,71.87
2022-11-30T20:26:40.417Z,71.74
2022-11-30T20:29:16.357Z,72.34
2022-11-30T20:31:48.477Z,72.58
2022-11-30T20:34:16.631Z,73.84
2022-11-30T20:36:46.984Z,73.18
2022-11-30T20:39:15.520Z,72.62
2022-11-30T20:41:44.844Z,71.83
2022-11-30T20:44:17.023Z,73.47
2022-11-30T20:46:44.405Z,72.76
2022-11-30T20:49:17.985Z,72.62
2022-11-30T20:51:47.013Z,72.34
2022-11-30T20:54:15.641Z,72.86
2022-11-30T20:56:42.706Z,74.40
2022-11-30T20:59:19.563Z,73.55
2022-11-30T21:01:48.122Z,72.66
2022-11-30T21:04:15.182Z,73.52
2022-11-30T21:06:45.634Z,73.43
2022-11-30T21:09:18.164Z,74.21
2022-11-30T21:11:47.074Z,73.50
2022-11-30T21:14:14.833Z,74.08
2022-11-30T21:16:41.964Z,73.32
2022-11-30T21:19:14.481Z,72.87
2022-11-30T21:21:43.649Z,73.01
2022-11-30T21:24:12.049Z,72.86
2022-11-30T21:26:42.705Z,73.31
2022-11-30T21:29:15.949Z,74.49
2022-11-30T21:31:43.682Z,74.38
2022-11-30T21:34:13.834Z,73.48
2022-11-30T21:36:40.886Z,72.73
2022-11-30T21:39:15.734Z,72.87
2022-11-30T21:41:42.867Z,73.57
2022-11-30T21:44:15.344Z,72.98
2022-11-30T21:46:45.645Z,73.79
2022-11-30T21:49:14.997Z,73.79
2022-11-30T21:51:42.805Z,73.25
2022-11-30T21:54:13.154Z,74.42
2022-11-30T21:56:44.939Z,74.83
2022-11-30T21:59:14.728Z,74.36
2022-11-30T22:01:47.767Z,74.68
2022-11-30T22:04:15.767Z,75.21
2022-11-30T22:06:43.498Z,74.11
2022-11-30T22:09:17.059Z,75.42
2022-11-30T22:11:45.543Z,74.38
2022-11-30T22:14:16.288Z,77.16
2022-11-30T22:16:43.950Z,76.74
2022-11-30T22:19:11.295Z,75.95
2022-11-30T22:21:38.659Z,75.20
2022-11-30T22:24:09.813Z,75.53
2022-11-30T22:26:42.652Z,74.86
2022-11-30T22:29:22.620Z,75.27
2022-11-30T22:31:52.830Z,73.93
2022-11-30T22:34:21.099Z,74.26
2022-11-30T22:36:50.759Z,74.38
2022-11-30T22:39:20.718Z,74.47
2022-11-30T22:41:54.569Z,74.28
2022-11-30T22:44:26.542Z,73.99
2022-11-30T22:46:53.727Z,74.11
2022-11-30T22:49:22.048Z,75.33
2022-11-30T22:51:49.701Z,75.04
2022-11-30T22:54:17.349Z,75.62
2022-11-30T22:56:46.748Z,75.19
2022-11-30T22:59:14.542Z,75.55
2022-11-30T23:01:47.778Z,74.69
2022-11-30T23:04:21.287Z,75.14
2022-11-30T23:06:50.051Z,74.12
2022-11-30T23:09:22.915Z,74.81
2022-11-30T23:11:52.847Z,73.53
2022-11-30T23:14:20.200Z,74.75
2022-11-30T23:16:49.436Z,75.30
2022-11-30T23:19:16.801Z,75.94
2022-11-30T23:21:48.871Z,75.84
2022-11-30T23:24:23.909Z,76.02
2022-11-30T23:26:51.093Z,75.62
2022-11-30T23:29:21.125Z,76.51
2022-11-30T23:31:48.635Z,75.96
2022-11-30T23:34:22.332Z,76.33
2022-11-30T23:36:50.472Z,75.95
2022-11-30T23:39:19.507Z,75.84
2022-11-30T23:41:49.116Z,75.42
2022-11-30T23:44:16.469Z,74.57
2022-11-30T23:46:43.539Z,75.14
2022-11-30T23:49:14.239Z,74.07
2022-11-30T23:51:42.003Z,74.41
2022-11-30T23:54:09.394Z,75.25
2022-11-30T23:56:36.476Z,76.82
2022-11-30T23:59:03.566Z,76.20
